createdAt,value
2023-04-30T00:02:23.603Z,98844.47
2023-04-30T00:04:51.988Z,98847.56
2023-04-30T00:07:20.313Z,98847.94
2023-04-30T00:09:49.513Z,98843.75
2023-04-30T00:12:17.997Z,98842.53
2023-04-30T00:14:46.347Z,98847.78
2023-04-30T00:17:16.220Z,98854.00
2023-04-30T00:19:44.898Z,98859.34
2023-04-30T00:22:15.785Z,98863.06
2023-04-30T00:24:44.329Z,98853.75
2023-04-30T00:27:12.629Z,98859.34
2023-04-30T00:29:41.563Z,98862.09
2023-04-30T00:32:10.213Z,98866.06
2023-04-30T00:34:40.100Z,98865.41
2023-04-30T00:37:08.512Z,98860.41
2023-04-30T00:39:36.924Z,98867.75
2023-04-30T00:42:05.368Z,98872.13
2023-04-30T00:44:33.708Z,98870.03
2023-04-30T00:47:02.010Z,98865.16
2023-04-30T00:49:30.276Z,98875.56
2023-04-30T00:51:59.998Z,98876.84
2023-04-30T00:54:28.518Z,98869.38
2023-04-30T00:56:59.731Z,98869.59
2023-04-30T00:59:30.077Z,98872.25
2023-04-30T01:01:58.478Z,98868.13
2023-04-30T01:04:27.203Z,98869.59
2023-04-30T01:06:56.663Z,98860.63
2023-04-30T01:09:26.506Z,98860.16
2023-04-30T01:12:06.279Z,98854.22
2023-04-30T01:14:42.609Z,98852.09
2023-04-30T01:17:18.742Z,98856.78
2023-04-30T01:19:47.444Z,98851.84
2023-04-30T01:22:32.897Z,98853.16
2023-04-30T01:25:24.373Z,98852.84
2023-04-30T01:28:07.193Z,98849.84
2023-04-30T01:30:37.243Z,98857.13
2023-04-30T01:33:05.589Z,98849.03
2023-04-30T01:35:50.529Z,98855.22
2023-04-30T01:38:27.068Z,98860.09
2023-04-30T01:41:02.475Z,98851.81
2023-04-30T01:43:40.604Z,98866.38
2023-04-30T01:46:15.334Z,98864.59
2023-04-30T01:48:52.173Z,98864.06
2023-04-30T01:51:26.078Z,98861.75
2023-04-30T01:53:58.431Z,98861.78
2023-04-30T01:56:32.388Z,98859.13
2023-04-30T01:59:03.683Z,98862.44
2023-04-30T02:01:33.947Z,98861.63
2023-04-30T02:04:03.739Z,98861.84
2023-04-30T02:06:41.328Z,98852.47
2023-04-30T02:09:10.648Z,98851.41
2023-04-30T02:11:38.892Z,98833.97
2023-04-30T02:14:08.863Z,98839.72
2023-04-30T02:16:37.256Z,98847.66
2023-04-30T02:19:05.997Z,98848.50
2023-04-30T02:21:34.385Z,98846.88
2023-04-30T02:24:02.760Z,98843.94
2023-04-30T02:26:31.033Z,98841.47
2023-04-30T02:28:59.383Z,98841.69
2023-04-30T02:31:29.079Z,98844.59
2023-04-30T02:33:57.478Z,98844.38
2023-04-30T02:36:26.205Z,98840.72
2023-04-30T02:38:54.596Z,98837.56
2023-04-30T02:41:23.075Z,98839.66
2023-04-30T02:43:51.572Z,98836.97
2023-04-30T02:46:20.098Z,98837.94
2023-04-30T02:48:49.809Z,98835.63
2023-04-30T02:51:18.213Z,98835.63
2023-04-30T02:53:46.565Z,98843.81
2023-04-30T02:56:16.940Z,98842.28
2023-04-30T02:58:45.695Z,98843.34
2023-04-30T03:01:14.893Z,98824.06
2023-04-30T03:03:43.352Z,98837.72
2023-04-30T03:06:13.166Z,98830.34
2023-04-30T03:08:41.605Z,98824.09
2023-04-30T03:11:10.016Z,98836.00
2023-04-30T03:13:38.400Z,98834.69
2023-04-30T03:16:06.955Z,98833.47
2023-04-30T03:18:37.793Z,98832.47
2023-04-30T03:21:06.299Z,98836.38
2023-04-30T03:23:36.061Z,98832.63
2023-04-30T03:26:04.410Z,98833.72
2023-04-30T03:28:32.863Z,98840.16
2023-04-30T03:31:05.036Z,98823.97
2023-04-30T03:33:34.239Z,98827.28
2023-04-30T03:36:02.611Z,98836.59
2023-04-30T03:38:31.013Z,98830.81
2023-04-30T03:41:00.675Z,98830.41
2023-04-30T03:43:28.948Z,98832.06
2023-04-30T03:45:57.267Z,98831.25
2023-04-30T03:48:27.213Z,98831.41
2023-04-30T03:50:55.730Z,98826.84
2023-04-30T03:53:25.768Z,98824.78
2023-04-30T03:55:55.391Z,98832.53
2023-04-30T03:58:25.180Z,98828.38
2023-04-30T04:00:53.788Z,98833.72
2023-04-30T04:03:22.285Z,98825.84
2023-04-30T04:05:51.322Z,98835.22
2023-04-30T04:08:19.881Z,98835.22
2023-04-30T04:10:48.426Z,98836.06
2023-04-30T04:13:16.784Z,98844.53
2023-04-30T04:15:46.722Z,98843.50
2023-04-30T04:18:15.197Z,98842.97
2023-04-30T04:20:43.691Z,98846.25
2023-04-30T04:23:12.201Z,98838.50
2023-04-30T04:25:41.658Z,98845.03
2023-04-30T04:28:10.595Z,98849.59
2023-04-30T04:30:40.026Z,98849.31
2023-04-30T04:33:10.518Z,98851.59
2023-04-30T04:35:38.884Z,98859.44
2023-04-30T04:38:07.389Z,98857.56
2023-04-30T04:40:37.230Z,98857.97
2023-04-30T04:43:05.569Z,98859.56
2023-04-30T04:45:36.772Z,98864.59
2023-04-30T04:48:05.126Z,98869.69
2023-04-30T04:50:37.341Z,98870.06
2023-04-30T04:53:05.903Z,98874.13
2023-04-30T04:55:34.456Z,98863.16
2023-04-30T04:58:02.721Z,98869.00
2023-04-30T05:00:31.074Z,98860.50
2023-04-30T05:02:59.824Z,98864.59
2023-04-30T05:05:31.084Z,98858.28
2023-04-30T05:08:00.720Z,98863.53
2023-04-30T05:10:29.054Z,98869.31
2023-04-30T05:12:58.898Z,98859.53
2023-04-30T05:15:27.248Z,98875.63
2023-04-30T05:17:55.627Z,98870.94
2023-04-30T05:20:24.156Z,98866.69
2023-04-30T05:22:52.414Z,98873.66
2023-04-30T05:25:22.130Z,98870.31
2023-04-30T05:27:50.566Z,98872.06
2023-04-30T05:30:19.040Z,98865.63
2023-04-30T05:32:50.871Z,98874.50
2023-04-30T05:35:21.591Z,98869.13
2023-04-30T05:37:50.257Z,98872.41
2023-04-30T05:40:18.708Z,98876.16
2023-04-30T05:42:48.313Z,98872.94
2023-04-30T05:45:17.404Z,98863.00
2023-04-30T05:47:46.024Z,98861.31
2023-04-30T05:50:14.459Z,98874.16
2023-04-30T05:52:44.766Z,98862.63
2023-04-30T05:55:13.776Z,98866.16
2023-04-30T05:57:42.144Z,98865.09
2023-04-30T06:00:14.154Z,98858.16
2023-04-30T06:02:42.460Z,98857.63
2023-04-30T06:05:12.889Z,98846.47
2023-04-30T06:07:43.033Z,98860.81
2023-04-30T06:10:12.759Z,98856.75
2023-04-30T06:12:41.242Z,98860.72
2023-04-30T06:15:09.962Z,98862.59
2023-04-30T06:17:39.681Z,98857.78
2023-04-30T06:20:09.555Z,98861.13
2023-04-30T06:22:37.850Z,98863.88
2023-04-30T06:25:07.283Z,98857.78
2023-04-30T06:27:35.580Z,98856.97
2023-04-30T06:30:03.964Z,98865.69
2023-04-30T06:32:32.259Z,98870.06
2023-04-30T06:35:01.943Z,98870.97
2023-04-30T06:37:31.457Z,98871.22
2023-04-30T06:40:01.407Z,98867.19
2023-04-30T06:42:34.315Z,98869.47
2023-04-30T06:45:02.700Z,98867.13
2023-04-30T06:47:34.520Z,98864.03
2023-04-30T06:50:05.401Z,98870.06
2023-04-30T06:52:36.255Z,98873.38
2023-04-30T06:55:04.868Z,98871.34
2023-04-30T06:57:33.182Z,98868.03
2023-04-30T07:00:02.279Z,98869.72
2023-04-30T07:02:32.925Z,98870.03
2023-04-30T07:05:11.436Z,98875.94
2023-04-30T07:07:39.771Z,98876.09
2023-04-30T07:10:08.846Z,98867.53
2023-04-30T07:12:37.539Z,98862.44
2023-04-30T07:15:06.490Z,98856.59
2023-04-30T07:17:35.249Z,98850.16
2023-04-30T07:20:04.436Z,98857.06
2023-04-30T07:22:34.056Z,98851.56
2023-04-30T07:25:02.471Z,98858.69
2023-04-30T07:27:30.748Z,98851.34
2023-04-30T07:30:01.137Z,98857.00
2023-04-30T07:32:29.474Z,98865.03
2023-04-30T07:34:59.924Z,98852.75
2023-04-30T07:37:28.243Z,98855.84
2023-04-30T07:39:58.000Z,98855.84
2023-04-30T07:42:26.327Z,98857.13
2023-04-30T07:44:57.474Z,98848.53
2023-04-30T07:47:27.013Z,98847.94
2023-04-30T07:49:55.703Z,98836.59
2023-04-30T07:52:26.857Z,98846.28
2023-04-30T07:54:55.323Z,98843.41
2023-04-30T07:57:26.636Z,98846.63
2023-04-30T07:59:55.233Z,98855.09
2023-04-30T08:02:23.927Z,98840.97
2023-04-30T08:04:52.496Z,98848.47
2023-04-30T08:07:21.092Z,98843.66
2023-04-30T08:09:49.440Z,98840.75
2023-04-30T08:12:18.427Z,98834.91
2023-04-30T08:14:48.069Z,98840.75
2023-04-30T08:17:16.443Z,98833.16
2023-04-30T08:19:47.426Z,98830.28
2023-04-30T08:22:17.825Z,98840.41
2023-04-30T08:24:46.098Z,98836.47
2023-04-30T08:27:14.436Z,98831.66
2023-04-30T08:29:42.816Z,98845.22
2023-04-30T08:32:12.665Z,98847.13
2023-04-30T08:34:41.687Z,98853.13
2023-04-30T08:37:10.453Z,98851.81
2023-04-30T08:39:38.895Z,98845.56
2023-04-30T08:42:15.681Z,98844.88
2023-04-30T08:44:46.495Z,98837.97
2023-04-30T08:47:18.939Z,98841.16
2023-04-30T08:49:48.560Z,98847.38
2023-04-30T08:52:17.298Z,98847.03
2023-04-30T08:54:45.929Z,98845.66
2023-04-30T08:57:16.684Z,98859.09
2023-04-30T08:59:46.266Z,98844.97
2023-04-30T09:02:14.704Z,98842.31
2023-04-30T09:04:44.691Z,98852.66
2023-04-30T09:07:14.488Z,98833.91
2023-04-30T09:09:42.803Z,98831.69
2023-04-30T09:12:19.337Z,98837.19
2023-04-30T09:15:01.603Z,98833.50
2023-04-30T09:17:30.354Z,98836.72
2023-04-30T09:20:09.830Z,98830.91
2023-04-30T09:22:42.011Z,98845.00
2023-04-30T09:25:12.659Z,98850.25
2023-04-30T09:27:41.398Z,98841.16
2023-04-30T09:30:31.362Z,98854.13
2023-04-30T09:32:59.739Z,98842.09
2023-04-30T09:35:33.559Z,98838.69
2023-04-30T09:38:04.754Z,98842.56
2023-04-30T09:40:37.454Z,98834.75
2023-04-30T09:43:06.088Z,98827.66
2023-04-30T09:45:41.565Z,98844.16
2023-04-30T09:48:17.285Z,98824.75
2023-04-30T09:50:47.597Z,98831.09
2023-04-30T09:53:17.797Z,98836.41
2023-04-30T09:55:47.596Z,98831.41
2023-04-30T09:58:17.177Z,98844.38
2023-04-30T10:00:48.318Z,98840.53
2023-04-30T10:03:17.082Z,98840.16
2023-04-30T10:05:48.403Z,98836.03
2023-04-30T10:08:25.948Z,98828.53
2023-04-30T10:10:59.590Z,98829.44
2023-04-30T10:13:32.044Z,98830.13
2023-04-30T10:16:03.172Z,98825.75
2023-04-30T10:18:35.838Z,98826.00
2023-04-30T10:21:12.083Z,98830.44
2023-04-30T10:23:42.051Z,98832.41
2023-04-30T10:26:12.221Z,98825.38
2023-04-30T10:28:40.890Z,98825.16
2023-04-30T10:31:11.613Z,98824.38
2023-04-30T10:33:49.690Z,98826.72
2023-04-30T10:36:27.759Z,98817.22
2023-04-30T10:38:56.648Z,98815.66
2023-04-30T10:41:27.710Z,98804.16
2023-04-30T10:44:01.849Z,98796.88
2023-04-30T10:46:30.596Z,98808.44
2023-04-30T10:49:00.149Z,98808.88
2023-04-30T10:54:28.029Z,98809.97
2023-04-30T10:57:11.459Z,98798.34
2023-04-30T10:59:43.617Z,98809.47
2023-04-30T11:02:12.727Z,98798.47
2023-04-30T11:05:15.093Z,98818.28
2023-04-30T11:07:50.319Z,98814.84
2023-04-30T11:10:22.863Z,98801.50
2023-04-30T11:12:53.339Z,98787.50
2023-04-30T11:15:25.523Z,98798.50
2023-04-30T11:17:58.752Z,98789.72
2023-04-30T11:20:27.733Z,98800.34
2023-04-30T11:23:12.869Z,98793.19
2023-04-30T11:25:44.322Z,98789.41
2023-04-30T11:28:16.427Z,98786.13
2023-04-30T11:30:54.346Z,98786.91
2023-04-30T11:33:27.099Z,98796.13
2023-04-30T11:35:57.068Z,98775.91
2023-04-30T11:38:28.621Z,98784.09
2023-04-30T11:41:00.397Z,98785.69
2023-04-30T11:43:30.971Z,98786.38
2023-04-30T11:46:04.304Z,98782.34
2023-04-30T11:48:33.776Z,98777.69
2023-04-30T11:51:05.012Z,98763.56
2023-04-30T11:53:33.467Z,98770.44
2023-04-30T11:56:07.268Z,98770.44
2023-04-30T11:58:37.906Z,98782.75
2023-04-30T12:01:09.697Z,98770.00
2023-04-30T12:03:43.043Z,98760.16
2023-04-30T12:06:13.037Z,98771.91
2023-04-30T12:08:42.938Z,98755.66
2023-04-30T12:11:25.965Z,98756.34
2023-04-30T12:13:55.960Z,98777.75
2023-04-30T12:16:25.940Z,98742.16
2023-04-30T12:18:56.577Z,98765.41
2023-04-30T12:21:25.031Z,98760.31
2023-04-30T12:23:53.763Z,98759.72
2023-04-30T12:26:22.289Z,98774.00
2023-04-30T12:28:53.322Z,98764.44
2023-04-30T12:31:21.644Z,98758.81
2023-04-30T12:33:56.926Z,98766.03
2023-04-30T12:36:32.652Z,98762.38
2023-04-30T12:39:08.162Z,98750.81
2023-04-30T12:41:42.388Z,98758.31
2023-04-30T12:44:19.613Z,98754.78
2023-04-30T12:46:48.883Z,98753.69
2023-04-30T12:49:25.671Z,98747.22
2023-04-30T12:51:59.527Z,98750.09
2023-04-30T12:54:29.787Z,98743.41
2023-04-30T12:57:03.319Z,98760.19
2023-04-30T12:59:34.720Z,98733.47
2023-04-30T13:02:14.751Z,98730.84
2023-04-30T13:04:45.815Z,98730.56
2023-04-30T13:07:14.163Z,98698.91
2023-04-30T13:09:42.494Z,98732.84
2023-04-30T13:12:10.823Z,98727.41
2023-04-30T13:14:42.731Z,98721.09
2023-04-30T13:17:13.776Z,98723.78
2023-04-30T13:19:42.571Z,98707.22
2023-04-30T13:22:10.954Z,98698.66
2023-04-30T13:24:39.285Z,98701.66
2023-04-30T13:27:07.594Z,98704.38
2023-04-30T13:29:35.972Z,98715.06
2023-04-30T13:32:05.935Z,98694.03
2023-04-30T13:34:34.318Z,98708.44
2023-04-30T13:37:02.712Z,98696.78
2023-04-30T13:39:30.981Z,98702.06
2023-04-30T13:42:01.360Z,98700.69
2023-04-30T13:44:32.664Z,98707.91
2023-04-30T13:47:01.227Z,98694.38
2023-04-30T13:49:31.117Z,98690.00
2023-04-30T13:51:59.396Z,98680.66
2023-04-30T13:54:28.201Z,98699.25
2023-04-30T13:56:57.022Z,98697.38
2023-04-30T13:59:25.483Z,98696.19
2023-04-30T14:01:56.411Z,98684.50
2023-04-30T14:04:24.736Z,98680.41
2023-04-30T14:06:56.599Z,98682.22
2023-04-30T14:09:25.262Z,98670.81
2023-04-30T14:11:58.998Z,98666.44
2023-04-30T14:14:27.566Z,98677.84
2023-04-30T14:16:56.372Z,98672.47
2023-04-30T14:19:27.443Z,98677.97
2023-04-30T14:21:57.353Z,98674.69
2023-04-30T14:24:26.034Z,98673.06
2023-04-30T14:26:54.420Z,98671.31
2023-04-30T14:29:22.777Z,98669.16
2023-04-30T14:31:51.068Z,98659.59
2023-04-30T14:34:19.667Z,98656.34
2023-04-30T14:36:48.088Z,98655.50
2023-04-30T14:39:17.683Z,98655.25
2023-04-30T14:41:45.986Z,98653.53
2023-04-30T14:44:14.285Z,98650.94
2023-04-30T14:46:42.629Z,98652.47
2023-04-30T14:49:11.280Z,98647.50
2023-04-30T14:51:42.379Z,98641.56
2023-04-30T14:54:10.837Z,98636.06
2023-04-30T14:56:41.038Z,98629.53
2023-04-30T14:59:09.557Z,98628.13
2023-04-30T15:01:40.405Z,98627.28
2023-04-30T15:04:09.526Z,98625.97
2023-04-30T15:06:38.074Z,98632.78
2023-04-30T15:09:08.597Z,98617.34
2023-04-30T15:11:36.849Z,98621.84
2023-04-30T15:14:06.739Z,98620.50
2023-04-30T15:16:35.145Z,98613.84
2023-04-30T15:19:03.717Z,98618.31
2023-04-30T15:21:34.241Z,98620.16
2023-04-30T15:24:02.548Z,98613.63
2023-04-30T15:26:31.210Z,98603.50
2023-04-30T15:28:59.667Z,98607.06
2023-04-30T15:31:30.452Z,98610.34
2023-04-30T15:33:58.785Z,98604.91
2023-04-30T15:36:27.179Z,98607.34
2023-04-30T15:38:57.526Z,98596.16
2023-04-30T15:41:26.099Z,98601.88
2023-04-30T15:43:54.408Z,98600.50
2023-04-30T15:46:25.584Z,98608.19
2023-04-30T15:48:55.337Z,98601.31
2023-04-30T15:51:23.803Z,98590.38
2023-04-30T15:53:52.176Z,98595.59
2023-04-30T15:56:25.480Z,98592.84
2023-04-30T15:58:54.468Z,98564.97
2023-04-30T16:01:23.631Z,98580.28
2023-04-30T16:03:52.206Z,98578.63
2023-04-30T16:06:24.906Z,98583.53
2023-04-30T16:08:54.057Z,98587.94
2023-04-30T16:11:23.832Z,98589.84
2023-04-30T16:13:52.913Z,98583.03
2023-04-30T16:16:21.308Z,98583.56
2023-04-30T16:18:50.853Z,98580.00
2023-04-30T16:21:21.919Z,98579.16
2023-04-30T16:23:52.612Z,98572.59
2023-04-30T16:26:20.961Z,98573.69
2023-04-30T16:28:49.306Z,98573.97
2023-04-30T16:31:21.370Z,98579.16
2023-04-30T16:33:49.870Z,98575.78
2023-04-30T16:36:18.185Z,98578.28
2023-04-30T16:38:46.677Z,98576.94
2023-04-30T16:41:17.879Z,98572.00
2023-04-30T16:43:46.121Z,98564.88
2023-04-30T16:46:16.498Z,98556.44
2023-04-30T16:48:44.952Z,98555.56
2023-04-30T16:51:13.739Z,98545.97
2023-04-30T16:53:42.065Z,98548.19
2023-04-30T16:56:10.350Z,98546.91
2023-04-30T16:58:39.998Z,98541.59
2023-04-30T17:01:08.345Z,98545.97
2023-04-30T17:03:36.960Z,98551.19
2023-04-30T17:06:07.230Z,98549.03
2023-04-30T17:08:40.347Z,98555.06
2023-04-30T17:11:08.947Z,98550.91
2023-04-30T17:13:37.598Z,98549.56
2023-04-30T17:16:07.617Z,98549.50
2023-04-30T17:18:36.029Z,98550.59
2023-04-30T17:21:04.963Z,98551.97
2023-04-30T17:23:33.273Z,98546.50
2023-04-30T17:26:01.936Z,98556.69
2023-04-30T17:28:30.225Z,98553.81
2023-04-30T17:30:58.739Z,98559.53
2023-04-30T17:33:29.178Z,98555.13
2023-04-30T17:35:58.518Z,98560.53
2023-04-30T17:38:26.956Z,98541.88
2023-04-30T17:40:56.618Z,98562.53
2023-04-30T17:43:27.920Z,98557.94
2023-04-30T17:45:57.230Z,98559.03
2023-04-30T17:48:25.596Z,98569.81
2023-04-30T17:50:55.707Z,98545.84
2023-04-30T17:53:26.130Z,98573.06
2023-04-30T17:55:54.463Z,98567.00
2023-04-30T17:58:22.913Z,98565.91
2023-04-30T18:00:51.526Z,98562.78
2023-04-30T18:03:20.135Z,98562.69
2023-04-30T18:05:48.685Z,98571.94
2023-04-30T18:08:18.568Z,98566.88
2023-04-30T18:10:49.660Z,98570.94
2023-04-30T18:13:18.320Z,98576.63
2023-04-30T18:15:47.044Z,98581.13
2023-04-30T18:18:16.157Z,98577.56
2023-04-30T18:20:44.572Z,98581.41
2023-04-30T18:23:13.942Z,98581.53
2023-04-30T18:25:43.640Z,98580.34
2023-04-30T18:28:12.417Z,98578.16
2023-04-30T18:30:40.692Z,98575.97
2023-04-30T18:33:09.224Z,98571.81
2023-04-30T18:35:38.075Z,98579.91
2023-04-30T18:38:08.069Z,98567.81
2023-04-30T18:40:36.473Z,98569.94
2023-04-30T18:43:06.134Z,98578.75
2023-04-30T18:45:34.424Z,98580.91
2023-04-30T18:48:02.869Z,98572.75
2023-04-30T18:50:31.217Z,98576.75
2023-04-30T18:52:59.542Z,98565.47
2023-04-30T18:55:27.881Z,98578.81
2023-04-30T18:57:56.528Z,98574.69
2023-04-30T19:00:26.631Z,98580.16
2023-04-30T19:02:55.709Z,98581.34
2023-04-30T19:05:24.163Z,98587.44
2023-04-30T19:07:52.580Z,98581.34
2023-04-30T19:10:20.914Z,98579.34
2023-04-30T19:12:51.287Z,98577.22
2023-04-30T19:15:19.816Z,98581.34
2023-04-30T19:17:49.465Z,98580.66
2023-04-30T19:20:17.879Z,98582.66
2023-04-30T19:22:46.552Z,98585.44
2023-04-30T19:25:15.793Z,98589.91
2023-04-30T19:27:44.962Z,98583.13
2023-04-30T19:30:14.704Z,98593.19
2023-04-30T19:32:43.180Z,98586.09
2023-04-30T19:35:13.407Z,98594.00
2023-04-30T19:37:41.799Z,98598.41
2023-04-30T19:40:14.134Z,98587.44
2023-04-30T19:42:44.634Z,98588.50
2023-04-30T19:45:12.927Z,98595.41
2023-04-30T19:47:41.317Z,98597.44
2023-04-30T19:50:10.398Z,98589.78
2023-04-30T19:52:50.604Z,98598.06
2023-04-30T19:55:24.631Z,98588.91
2023-04-30T19:57:52.931Z,98592.44
2023-04-30T20:00:21.502Z,98582.47
2023-04-30T20:02:50.257Z,98594.34
2023-04-30T20:05:18.755Z,98588.09
2023-04-30T20:07:48.472Z,98591.19
2023-04-30T20:10:19.728Z,98589.41
2023-04-30T20:12:48.036Z,98591.97
2023-04-30T20:15:16.573Z,98590.81
2023-04-30T20:17:46.030Z,98593.00
2023-04-30T20:20:17.157Z,98592.56
2023-04-30T20:22:45.472Z,98596.94
2023-04-30T20:25:16.450Z,98591.38
2023-04-30T20:27:44.778Z,98589.25
2023-04-30T20:30:13.732Z,98592.56
2023-04-30T20:32:44.877Z,98597.97
2023-04-30T20:35:13.442Z,98591.75
2023-04-30T20:37:42.131Z,98597.72
2023-04-30T20:40:11.326Z,98600.31
2023-04-30T20:42:40.966Z,98596.75
2023-04-30T20:45:11.246Z,98595.94
2023-04-30T20:47:40.400Z,98592.78
2023-04-30T20:50:09.774Z,98595.59
2023-04-30T20:52:38.115Z,98604.03
2023-04-30T20:55:06.998Z,98593.13
2023-04-30T20:57:37.962Z,98591.09
2023-04-30T21:00:11.886Z,98589.22
2023-04-30T21:02:40.350Z,98581.38
2023-04-30T21:05:10.096Z,98589.88
2023-04-30T21:07:38.456Z,98585.72
2023-04-30T21:10:08.248Z,98590.03
2023-04-30T21:12:36.892Z,98590.50
2023-04-30T21:15:05.822Z,98594.84
2023-04-30T21:17:35.530Z,98582.94
2023-04-30T21:20:07.504Z,98586.97
2023-04-30T21:22:36.013Z,98579.94
2023-04-30T21:25:04.710Z,98587.91
2023-04-30T21:27:36.652Z,98583.19
2023-04-30T21:30:05.734Z,98588.25
2023-04-30T21:32:35.383Z,98577.16
2023-04-30T21:35:03.929Z,98579.94
2023-04-30T21:37:32.228Z,98578.31
2023-04-30T21:40:00.675Z,98580.44
2023-04-30T21:42:29.729Z,98573.16
2023-04-30T21:44:57.980Z,98570.91
2023-04-30T21:47:26.540Z,98574.28
2023-04-30T21:49:59.525Z,98570.31
2023-04-30T21:52:28.023Z,98578.44
2023-04-30T21:54:56.388Z,98562.81
2023-04-30T21:57:25.105Z,98567.72
2023-04-30T22:02:38.613Z,98557.66
2023-04-30T22:05:07.855Z,98559.03
2023-04-30T22:07:36.524Z,98558.31
2023-04-30T22:10:05.778Z,98560.06
2023-04-30T22:12:35.546Z,98550.81
2023-04-30T22:15:04.635Z,98557.47
2023-04-30T22:17:33.437Z,98545.56
2023-04-30T22:20:03.387Z,98543.25
2023-04-30T22:22:32.052Z,98542.16
2023-04-30T22:25:00.406Z,98542.38
2023-04-30T22:27:28.693Z,98532.28
2023-04-30T22:29:59.204Z,98534.50
2023-04-30T22:32:27.624Z,98534.13
2023-04-30T22:34:55.923Z,98536.59
2023-04-30T22:37:26.275Z,98532.53
2023-04-30T22:39:54.796Z,98527.13
2023-04-30T22:42:24.312Z,98529.50
2023-04-30T22:44:53.134Z,98526.34
2023-04-30T22:47:21.533Z,98528.78
2023-04-30T22:49:50.028Z,98517.38
2023-04-30T22:52:18.313Z,98517.34
2023-04-30T22:54:48.208Z,98517.38
2023-04-30T22:57:16.795Z,98517.59
2023-04-30T22:59:45.127Z,98513.94
2023-04-30T23:02:15.866Z,98526.16
2023-04-30T23:04:44.260Z,98527.44
2023-04-30T23:07:14.965Z,98534.19
2023-04-30T23:09:45.113Z,98528.53
2023-04-30T23:12:15.192Z,98526.16
2023-04-30T23:14:43.471Z,98523.28
2023-04-30T23:17:11.874Z,98527.81
2023-04-30T23:19:40.195Z,98521.47
2023-04-30T23:22:08.464Z,98519.50
2023-04-30T23:24:37.726Z,98489.91
2023-04-30T23:27:06.013Z,98512.88
2023-04-30T23:29:36.466Z,98514.63
2023-04-30T23:32:05.709Z,98509.31
2023-04-30T23:34:34.086Z,98514.03
2023-04-30T23:37:02.993Z,98519.06
2023-04-30T23:39:31.285Z,98520.72
2023-04-30T23:41:59.582Z,98512.47
2023-04-30T23:44:30.922Z,98512.44
2023-04-30T23:47:01.953Z,98505.06
2023-04-30T23:49:30.489Z,98508.31
2023-04-30T23:51:58.952Z,98510.69
2023-04-30T23:54:27.197Z,98501.06
2023-04-30T23:56:55.456Z,98494.03
2023-04-30T23:59:25.540Z,98493.00
